Sunday, June 17, 2018, 10:00 PM EDT
Back to Local

KPVD, Providence Green State Airport

Location: Warwick, RI, United States Lat: 41.733
Local Time: 10:00 PM EDT ( 2:00 GMT) Lon: -71.433
Time Zone: US/Eastern Elev: 55 ft

Show me the last for .
Show Decoded

2018-06-17 20:51 METAR KPVD 180051Z 15005KT 10SM FEW220 FEW250 FEW300 21/15 A3007 RMK AO2 SLP180
                 T02060150 =
2018-06-17 19:51 METAR KPVD 172351Z 18007KT 10SM FEW220 BKN250 BKN300 24/13 A3007 RMK AO2 SLP182
                 T02440128 10294 20244 53002 =
2018-06-17 18:51 METAR KPVD 172251Z 18010KT 10SM FEW220 BKN250 BKN300 27/12 A3007 RMK AO2 SLP182
                 T02670122 =
2018-06-17 17:51 METAR KPVD 172151Z 17011KT 10SM FEW055 FEW220 BKN250 BKN300 28/14 A3006 RMK AO2
                 SLP179 T02780139 =
2018-06-17 16:51 METAR KPVD 172051Z 16010KT 10SM FEW055 BKN220 BKN250 BKN300 27/14 A3007 RMK AO2
                 SLP180 T02720144 50003 =
2018-06-17 15:51 METAR KPVD 171951Z 15012KT 10SM FEW055 FEW250 FEW300 27/14 A3007 RMK AO2 SLP181
                 T02720139 =
2018-06-17 14:51 METAR KPVD 171851Z 15012KT 10SM FEW065 FEW250 28/13 A3006 RMK AO2 SLP178
                 T02830128 =
2018-06-17 13:51 METAR KPVD 171751Z 16013KT 10SM FEW060 FEW250 29/14 A3006 RMK AO2 SLP177
                 T02890139 10306 20217 58010 =
2018-06-17 12:51 METAR KPVD 171651Z 13007KT 10SM FEW060 FEW250 30/13 A3006 RMK AO2 SLP180
                 T03000133 =
2018-06-17 11:51 METAR KPVD 171551Z 12006KT 10SM FEW250 29/14 A3008 RMK AO2 SLP186 T02890144 =
2018-06-17 10:51 METAR KPVD 171451Z 08006KT 10SM FEW250 28/14 A3009 RMK AO2 SLP187 T02830144
                 52009 =
2018-06-17 09:51 METAR KPVD 171351Z 10005KT 10SM FEW200 SCT250 26/16 A3008 RMK AO2 SLP184
                 T02610156 =
2018-06-17 08:51 METAR KPVD 171251Z 00000KT 10SM FEW200 SCT250 25/14 A3007 RMK AO2 SLP182
                 T02500144 $ =
2018-06-17 07:51 METAR KPVD 171151Z 26003KT 10SM FEW200 SCT250 22/13 A3006 RMK AO2 SLP178
                 T02170133 10217 20167 51009 $ =
2018-06-17 06:51 METAR KPVD 171051Z 00000KT 10SM SCT200 SCT250 19/13 A3006 RMK AO2 SLP178
                 T01890128 $ =
2018-06-17 05:51 METAR KPVD 170951Z 27004KT 10SM SCT200 SCT250 17/12 A3004 RMK AO2 SLP172
                 T01670122 $ =
2018-06-17 04:51 METAR KPVD 170851Z AUTO 27003KT 10SM CLR 17/12 A3003 RMK AO2 SLP169 T01670117
                 53006 $ =
2018-06-17 03:51 METAR KPVD 170751Z AUTO 27007KT 10SM CLR 17/12 A3002 RMK AO2 SLP166 T01720117 $
                 =
2018-06-17 02:51 METAR KPVD 170651Z AUTO 27006KT 10SM CLR 18/12 A3001 RMK AO2 SLP162 T01780117 $
                 =
2018-06-17 01:51 METAR KPVD 170551Z AUTO 27007KT 10SM CLR 18/12 A3002 RMK AO2 SLP163 T01780117
                 10244 20178 50002 $ =
2018-06-17 00:51 METAR KPVD 170451Z AUTO 27006KT 10SM CLR 18/12 A3002 RMK AO2 SLP165 T01830117
                 402940133 =
2018-06-16 23:51 METAR KPVD 170351Z 26008KT 10SM CLR 19/12 A3002 RMK AO2 SLP165 LAST T01890117 =
2018-06-16 22:51 METAR KPVD 170251Z 27006KT 10SM CLR 20/11 A3001 RMK AO2 SLP161 T02000111 51017 =

Support USWX by starting your Amazon purchase here.